Mill Creek, West Virginia
Current Conditions -  °F | °C
As of 9:51 AM on Sunday 23 Nov 2014 (Local Time) from KEKN Reporting Station
Clear Clear  
Wind Chill: 39°   Ceiling: Unl
Heat Index: 39°   Visibility: 10mi
Dew Point: 31°   Wind: 0mph
Humidity: 73%   Direction: NA
Pressure: 30.13"   Gusts: NA
Location:  38.73°N, 79.97°W
Report Text: KEKN 231451Z AUTO 00000KT 10SM CLR 04/M01 A3013 RMK AO2 SLP224 T00391006 58015 TSNO
Loading
Personal Weather Stations






























Interactive Weather Map New forecast layout! Learn more

10-Day Weather Forecast

Advertisements
Track Severe Weather on mobile